CheckWX is a tool to help pilots better visualize weather data.  It is not intended as a substitute for an official pre-flight weather briefing.

05:16:17 UTC

EFMI METAR
Mikkeli Airport
Mikkeli, Finland
Current

24 hours ago

EFMI 190520Z AUTO 22007KT 180V270 8000 OVC005 02/02 Q0999
Observed
Feb-19 @ 05:20 UTC
Wind
  • 220° at 7 KTS
Visibility
7,998 meters
Flight Rules
IFR
Cloud Levels
  • Overcast at 500' AGL
Temperature
C / 36°F
Dewpoint
C / 36°F
Humidity
100%
Altimeter
29.5" Hg
Pressure
998.92 hPa